Hovedside
METAR-TAF:

METAR-TAF

Lufthavner :

Tasjkent, Usbekistan

Tasjkent internasjonale lufthavn

breddegrad: 41-16N, lengdegrad: 069-16E, høyde over havet: 489 m

Gjeldene værobservasjon

Denne rapporten ble laget for 35 minutter siden, klokken 19:00 UTC
Vind 8 kt fra Øst-nordøst
Temperatur 7°C
Luftfuktighet 45%
Trykk 1021 hPa
Sikt 10 km eller mer
ingen skyer under 1500 m og ingen bygeskyer

METAR: UTTT 191900Z 07008KT CAVOK 07/M04 Q1021 R08R/CLRD70 NOSIG

Tid: 00:35 (19:35 UTC)

Varsel

Denne rapporten ble laget for 2 timer og 35 minutter siden, klokken 17:00 UTC
Varsel gyldig fra 19. klokken 18 UTC til 20. klokken 18 UTC
Vind 10 kt fra Øst-nordøst
Sikt: 7000 m
Midlertidig
fra 19. klokken 18 UTC til 20. klokken 04 UTC
Sikt: 3000 m
dis, røyk

TAF: UTTT 191700Z 1918/2018 06010KT 7000 NSC TEMPO 1918/2004 3000 BR FU

Værobservasjoner og værvarsel for over 4000 flyplasser (METAR- og TAF-rapporter).

Tilgjengelige stasjoner er representert av de røde og gule prikkene på kartet.

Hold musepekeren over prikken for å se navnet på stasjonen.

Klikk så for å se værobservasjoner og -varsler.

For å forandre kartet kan du klikke på den grønne knappen med svart kryss for å zoome inn, på den grønne knappen med strek for å zoome ut, eller på de grønne pilene for å se tilstøtende kart.


METAR-TAF: